createdAt,value
2019-05-03T00:02:28.555Z,8.50
2019-05-03T00:04:34.503Z,9.20
2019-05-03T00:06:39.237Z,8.70
2019-05-03T00:08:43.630Z,6.60
2019-05-03T00:10:48.182Z,8.80
2019-05-03T00:12:53.281Z,8.90
2019-05-03T00:15:02.782Z,9.73
2019-05-03T00:17:07.159Z,8.47
2019-05-03T00:19:12.732Z,8.10
2019-05-03T00:21:17.260Z,8.60
2019-05-03T00:23:22.820Z,8.60
2019-05-03T00:25:27.355Z,8.57
2019-05-03T00:27:32.250Z,7.40
2019-05-03T00:29:36.752Z,7.50
2019-05-03T00:31:42.306Z,6.97
2019-05-03T00:33:48.888Z,7.80
2019-05-03T00:36:23.453Z,8.30
2019-05-03T00:38:28.173Z,5.87
2019-05-03T00:40:34.969Z,8.07
2019-05-03T00:42:39.390Z,6.87
2019-05-03T00:44:43.877Z,8.07
2019-05-03T00:46:48.393Z,6.93
2019-05-03T00:48:52.787Z,7.97
2019-05-03T00:50:57.138Z,8.13
2019-05-03T00:53:02.311Z,7.40
2019-05-03T00:55:16.210Z,8.70
2019-05-03T00:57:13.189Z,6.87
2019-05-03T00:59:17.558Z,6.50
2019-05-03T01:01:22.548Z,5.60
2019-05-03T01:03:27.113Z,6.13
2019-05-03T01:05:33.107Z,6.47
2019-05-03T01:07:37.680Z,6.27
2019-05-03T01:09:42.426Z,6.00
2019-05-03T01:11:46.894Z,6.00
2019-05-03T01:13:52.182Z,6.73
2019-05-03T01:16:05.941Z,6.50
2019-05-03T01:18:12.344Z,6.40
2019-05-03T01:20:16.771Z,7.13
2019-05-03T01:22:22.757Z,6.77
2019-05-03T01:24:27.224Z,6.07
2019-05-03T01:26:32.001Z,6.77
2019-05-03T01:28:36.553Z,6.83
2019-05-03T01:30:42.481Z,5.53
2019-05-03T01:32:47.083Z,6.50
2019-05-03T01:34:52.445Z,6.50
2019-05-03T01:36:57.036Z,6.10
2019-05-03T01:39:02.161Z,4.50
2019-05-03T01:41:06.704Z,5.53
2019-05-03T01:43:11.682Z,5.87
2019-05-03T01:45:17.656Z,5.80
2019-05-03T01:47:29.110Z,6.50
2019-05-03T01:49:42.664Z,5.50
2019-05-03T01:51:57.631Z,4.97
2019-05-03T01:54:01.940Z,5.00
2019-05-03T01:56:06.443Z,5.10
2019-05-03T01:58:12.455Z,4.83
2019-05-03T02:00:23.005Z,4.67
2019-05-03T02:02:44.973Z,4.97
2019-05-03T02:05:07.766Z,4.37
2019-05-03T02:07:13.129Z,4.10
2019-05-03T02:09:17.502Z,4.00
2019-05-03T02:11:22.218Z,3.93
2019-05-03T02:13:26.650Z,2.97
2019-05-03T02:15:32.692Z,3.70
2019-05-03T02:17:37.097Z,2.90
2019-05-03T02:19:42.158Z,4.20
2019-05-03T02:21:46.701Z,3.90
2019-05-03T02:23:52.065Z,3.93
2019-05-03T02:25:59.155Z,4.00
2019-05-03T02:28:02.705Z,3.60
2019-05-03T02:30:07.226Z,4.47
2019-05-03T02:32:13.242Z,5.10
2019-05-03T02:34:17.873Z,4.90
2019-05-03T02:36:23.233Z,5.47
2019-05-03T02:38:28.257Z,4.50
2019-05-03T02:40:33.903Z,5.10
2019-05-03T02:42:38.412Z,4.50
2019-05-03T02:44:43.024Z,5.20
2019-05-03T02:46:56.334Z,5.20
2019-05-03T02:49:15.386Z,4.00
2019-05-03T02:51:21.415Z,4.90
2019-05-03T02:53:26.234Z,5.10
2019-05-03T02:55:30.792Z,3.77
2019-05-03T02:57:35.319Z,4.50
2019-05-03T02:59:42.516Z,3.70
2019-05-03T03:01:49.177Z,3.43
2019-05-03T03:03:56.057Z,4.83
2019-05-03T03:06:06.734Z,4.13
2019-05-03T03:08:11.747Z,4.20
2019-05-03T03:10:16.524Z,4.30
2019-05-03T03:12:25.724Z,4.27
2019-05-03T03:14:33.162Z,4.90
2019-05-03T03:16:39.110Z,3.80
2019-05-03T03:18:45.630Z,4.47
2019-05-03T03:20:55.254Z,4.90
2019-05-03T03:23:01.033Z,4.47
2019-05-03T03:25:11.081Z,4.83
2019-05-03T03:27:18.609Z,4.83
2019-05-03T03:29:26.963Z,5.00
2019-05-03T03:32:08.416Z,5.67
2019-05-03T03:34:11.163Z,5.60
2019-05-03T03:36:42.321Z,5.30
2019-05-03T03:38:21.504Z,5.20
2019-05-03T03:40:27.832Z,5.57
2019-05-03T03:42:36.014Z,5.60
2019-05-03T03:44:40.805Z,5.07
2019-05-03T03:46:45.890Z,5.63
2019-05-03T03:48:55.821Z,5.77
2019-05-03T03:51:01.705Z,6.43
2019-05-03T03:53:08.240Z,6.40
2019-05-03T03:55:15.652Z,6.47
2019-05-03T03:57:20.226Z,6.53
2019-05-03T03:59:26.674Z,6.57
2019-05-03T04:01:31.660Z,7.30
2019-05-03T04:03:36.358Z,6.47
2019-05-03T04:05:40.864Z,6.07
2019-05-03T04:07:46.362Z,6.53
2019-05-03T04:09:51.993Z,4.37
2019-05-03T04:11:57.098Z,6.70
2019-05-03T04:14:01.705Z,7.63
2019-05-03T04:16:37.250Z,7.80
2019-05-03T04:18:58.436Z,6.03
2019-05-03T04:21:05.557Z,7.40
2019-05-03T04:23:10.172Z,7.00
2019-05-03T04:25:15.617Z,8.37
2019-05-03T04:27:24.403Z,7.57
2019-05-03T04:29:26.947Z,7.10
2019-05-03T04:31:31.361Z,7.13
2019-05-03T04:33:36.014Z,7.07
2019-05-03T04:35:40.404Z,7.63
2019-05-03T04:37:45.343Z,6.07
2019-05-03T04:39:50.110Z,6.50
2019-05-03T04:41:55.975Z,7.00
2019-05-03T04:44:00.340Z,6.33
2019-05-03T04:46:11.825Z,8.07
2019-05-03T04:48:16.306Z,7.50
2019-05-03T04:50:20.721Z,5.90
2019-05-03T04:52:25.860Z,4.70
2019-05-03T04:54:50.341Z,5.43
2019-05-03T04:56:56.088Z,4.97
2019-05-03T04:59:00.676Z,5.57
2019-05-03T05:01:06.251Z,6.27
2019-05-03T05:03:10.747Z,5.07
2019-05-03T05:05:15.982Z,6.07
2019-05-03T05:07:20.403Z,4.50
2019-05-03T05:09:25.851Z,5.17
2019-05-03T05:11:31.364Z,5.90
2019-05-03T05:13:35.831Z,4.73
2019-05-03T05:15:40.270Z,5.37
2019-05-03T05:17:56.259Z,6.10
2019-05-03T05:20:14.533Z,4.70
2019-05-03T05:22:20.832Z,5.30
2019-05-03T05:24:25.596Z,6.77
2019-05-03T05:26:49.142Z,6.37
2019-05-03T05:28:57.162Z,5.97
2019-05-03T05:31:01.572Z,5.50
2019-05-03T05:33:08.231Z,4.67
2019-05-03T05:35:14.274Z,5.63
2019-05-03T05:37:18.740Z,6.67
2019-05-03T05:39:24.469Z,5.43
2019-05-03T05:41:28.916Z,5.13
2019-05-03T05:43:33.277Z,6.40
2019-05-03T05:45:38.144Z,6.43
2019-05-03T05:47:48.694Z,6.37
2019-05-03T05:49:56.547Z,6.03
2019-05-03T05:52:00.969Z,5.67
2019-05-03T05:54:05.438Z,5.60
2019-05-03T05:56:40.775Z,5.60
2019-05-03T05:58:55.445Z,4.63
2019-05-03T06:01:05.339Z,3.73
2019-05-03T06:03:09.442Z,3.07
2019-05-03T06:05:14.835Z,2.30
2019-05-03T06:07:31.015Z,2.60
2019-05-03T06:09:44.831Z,2.73
2019-05-03T06:11:55.392Z,3.53
2019-05-03T06:14:19.734Z,2.87
2019-05-03T06:16:34.898Z,2.07
2019-05-03T06:19:01.311Z,3.23
2019-05-03T06:21:19.416Z,2.90
2019-05-03T06:23:31.017Z,3.47
2019-05-03T06:25:40.895Z,5.67
2019-05-03T06:27:45.246Z,4.57
2019-05-03T06:29:51.016Z,4.07
2019-05-03T06:32:11.224Z,6.10
2019-05-03T06:34:16.158Z,7.10
2019-05-03T06:36:20.575Z,8.73
2019-05-03T06:38:25.028Z,6.87
2019-05-03T06:40:29.686Z,7.03
2019-05-03T06:42:35.530Z,5.97
2019-05-03T06:44:42.113Z,3.70
2019-05-03T06:46:47.824Z,4.20
2019-05-03T06:48:54.225Z,3.53
2019-05-03T06:51:00.362Z,3.43
2019-05-03T06:53:05.929Z,4.07
2019-05-03T06:55:11.959Z,4.00
2019-05-03T06:57:17.767Z,3.20
2019-05-03T06:59:30.157Z,2.80
2019-05-03T07:01:42.170Z,2.63
2019-05-03T07:04:04.984Z,3.00
2019-05-03T07:06:34.529Z,3.00
2019-05-03T07:08:38.210Z,1.90
2019-05-03T07:10:47.649Z,3.00
2019-05-03T07:12:58.090Z,2.40
2019-05-03T07:15:05.172Z,2.87
2019-05-03T07:17:09.774Z,3.97
2019-05-03T07:19:14.805Z,3.30
2019-05-03T07:21:19.233Z,2.50
2019-05-03T07:23:24.505Z,3.97
2019-05-03T07:25:28.953Z,3.00
2019-05-03T07:27:34.964Z,3.23
2019-05-03T07:29:39.826Z,3.70
2019-05-03T07:31:44.744Z,2.70
2019-05-03T07:33:49.171Z,2.23
2019-05-03T07:35:54.775Z,2.67
2019-05-03T07:37:59.508Z,2.73
2019-05-03T07:40:04.803Z,2.20
2019-05-03T07:42:09.412Z,2.20
2019-05-03T07:44:15.242Z,1.77
2019-05-03T07:46:19.720Z,1.53
2019-05-03T07:48:25.465Z,2.07
2019-05-03T07:50:32.921Z,2.50
2019-05-03T07:52:36.435Z,1.87
2019-05-03T07:54:40.914Z,2.47
2019-05-03T07:57:05.110Z,1.70
2019-05-03T07:59:10.241Z,2.00
2019-05-03T08:01:21.514Z,1.30
2019-05-03T08:03:25.970Z,1.40
2019-05-03T08:05:30.710Z,1.70
2019-05-03T08:07:35.697Z,2.20
2019-05-03T08:09:40.139Z,1.80
2019-05-03T08:11:45.165Z,1.27
2019-05-03T08:13:51.942Z,1.57
2019-05-03T08:15:57.688Z,1.40
2019-05-03T08:18:02.098Z,1.67
2019-05-03T08:20:06.945Z,1.20
2019-05-03T08:22:11.668Z,1.37
2019-05-03T08:24:16.124Z,0.97
2019-05-03T08:26:20.692Z,1.30
2019-05-03T08:28:25.391Z,1.50
2019-05-03T08:30:38.632Z,1.60
2019-05-03T08:32:55.632Z,1.30
2019-05-03T08:35:12.876Z,0.90
2019-05-03T08:37:27.964Z,1.67
2019-05-03T08:39:32.331Z,1.20
2019-05-03T08:41:38.239Z,1.70
2019-05-03T08:43:45.533Z,1.20
2019-05-03T08:45:50.126Z,1.73
2019-05-03T08:47:55.446Z,1.60
2019-05-03T08:50:00.459Z,3.00
2019-05-03T08:52:05.597Z,1.47
2019-05-03T08:54:10.382Z,1.00
2019-05-03T08:56:17.050Z,1.40
2019-05-03T08:58:21.440Z,2.70
2019-05-03T09:00:27.926Z,1.23
2019-05-03T09:02:34.575Z,1.10
2019-05-03T09:04:42.902Z,1.47
2019-05-03T09:06:45.571Z,1.50
2019-05-03T09:08:50.421Z,1.27
2019-05-03T09:11:05.465Z,1.63
2019-05-03T09:13:14.931Z,1.57
2019-05-03T09:15:21.672Z,2.63
2019-05-03T09:17:27.377Z,1.40
2019-05-03T09:19:31.764Z,1.70
2019-05-03T09:21:36.093Z,1.30
2019-05-03T09:23:41.574Z,1.13
2019-05-03T09:25:46.103Z,1.10
2019-05-03T09:27:50.668Z,1.50
2019-05-03T09:29:55.922Z,1.47
2019-05-03T09:32:00.424Z,1.13
2019-05-03T09:34:08.028Z,1.20
2019-05-03T09:36:11.072Z,1.53
2019-05-03T09:38:16.244Z,1.20
2019-05-03T09:40:20.711Z,1.43
2019-05-03T09:42:25.507Z,1.60
2019-05-03T09:44:29.961Z,1.60
2019-05-03T09:46:35.420Z,1.40
2019-05-03T09:48:39.972Z,1.47
2019-05-03T09:50:45.121Z,1.30
2019-05-03T09:52:49.858Z,1.60
2019-05-03T09:54:55.887Z,2.00
2019-05-03T09:57:00.801Z,1.50
2019-05-03T09:59:05.459Z,1.60
2019-05-03T10:01:09.971Z,1.63
2019-05-03T10:03:14.318Z,1.67
2019-05-03T10:05:18.886Z,1.70
2019-05-03T10:07:25.585Z,1.67
2019-05-03T10:09:29.403Z,1.90
2019-05-03T10:11:35.107Z,1.17
2019-05-03T10:13:41.769Z,1.37
2019-05-03T10:15:45.748Z,1.57
2019-05-03T10:17:57.048Z,1.77
2019-05-03T10:20:01.455Z,1.67
2019-05-03T10:22:06.039Z,1.73
2019-05-03T10:24:10.351Z,1.77
2019-05-03T10:26:15.171Z,1.20
2019-05-03T10:28:19.739Z,1.50
2019-05-03T10:30:28.223Z,1.80
2019-05-03T10:32:38.512Z,1.90
2019-05-03T10:34:54.738Z,1.87
2019-05-03T10:36:59.098Z,1.83
2019-05-03T10:39:05.386Z,1.33
2019-05-03T10:41:09.761Z,1.33
2019-05-03T10:43:14.125Z,2.27
2019-05-03T10:45:18.630Z,2.40
2019-05-03T10:47:25.346Z,0.97
2019-05-03T10:49:29.213Z,1.00
2019-05-03T10:51:37.713Z,1.10
2019-05-03T10:53:45.468Z,1.37
2019-05-03T10:56:07.461Z,1.40
2019-05-03T10:58:16.445Z,1.50
2019-05-03T11:00:42.558Z,1.33
2019-05-03T11:02:56.888Z,1.17
2019-05-03T11:05:01.653Z,1.20
2019-05-03T11:07:06.098Z,1.50
2019-05-03T11:09:10.592Z,1.40
2019-05-03T11:11:15.182Z,1.50
2019-05-03T11:13:19.696Z,1.80
2019-05-03T11:15:25.831Z,1.37
2019-05-03T11:17:30.494Z,1.50
2019-05-03T11:19:36.552Z,1.40
2019-05-03T11:21:41.375Z,1.27
2019-05-03T11:23:45.777Z,1.40
2019-05-03T11:25:50.194Z,1.80
2019-05-03T11:27:55.942Z,1.37
2019-05-03T11:30:00.339Z,1.63
2019-05-03T11:32:22.269Z,1.70
2019-05-03T11:34:30.920Z,1.47
2019-05-03T11:36:42.052Z,1.50
2019-05-03T11:38:47.549Z,1.03
2019-05-03T11:40:52.408Z,1.37
2019-05-03T11:42:58.684Z,1.40
2019-05-03T11:45:03.095Z,1.67
2019-05-03T11:47:08.521Z,1.57
2019-05-03T11:49:14.872Z,1.23
2019-05-03T11:51:19.294Z,1.60
2019-05-03T11:53:25.227Z,1.17
2019-05-03T11:55:29.856Z,1.70
2019-05-03T11:57:36.334Z,1.80
2019-05-03T11:59:40.811Z,1.47
2019-05-03T12:01:55.348Z,2.13
2019-05-03T12:04:04.994Z,1.90
2019-05-03T12:06:10.035Z,2.00
2019-05-03T12:08:14.824Z,1.60
2019-05-03T12:10:32.490Z,1.90
2019-05-03T12:12:29.936Z,1.50
2019-05-03T12:14:34.661Z,1.77
2019-05-03T12:17:10.677Z,1.33
2019-05-03T12:18:53.751Z,2.17
2019-05-03T12:20:59.319Z,1.77
2019-05-03T12:23:06.139Z,1.87
2019-05-03T12:25:11.516Z,1.20
2019-05-03T12:27:16.590Z,1.50
2019-05-03T12:29:21.107Z,2.00
2019-05-03T12:31:33.900Z,2.27
2019-05-03T12:33:35.141Z,2.47
2019-05-03T12:35:39.452Z,1.40
2019-05-03T12:37:44.316Z,1.87
2019-05-03T12:39:49.222Z,2.20
2019-05-03T12:41:55.029Z,1.80
2019-05-03T12:43:59.566Z,1.90
2019-05-03T12:46:06.275Z,1.90
2019-05-03T12:48:10.519Z,1.80
2019-05-03T12:50:15.847Z,1.80
2019-05-03T12:52:20.930Z,1.60
2019-05-03T12:54:26.717Z,1.90
2019-05-03T12:56:32.945Z,1.93
2019-05-03T12:58:55.204Z,1.33
2019-05-03T13:01:15.727Z,1.73
2019-05-03T13:03:26.493Z,2.00
2019-05-03T13:05:31.077Z,1.90
2019-05-03T13:07:45.450Z,2.10
2019-05-03T13:09:49.744Z,1.93
2019-05-03T13:11:58.963Z,1.90
2019-05-03T13:14:01.741Z,1.60
2019-05-03T13:16:06.738Z,4.73
2019-05-03T13:18:11.137Z,1.67
2019-05-03T13:20:19.088Z,1.63
2019-05-03T13:22:25.357Z,1.90
2019-05-03T13:24:30.824Z,1.40
2019-05-03T13:26:35.487Z,1.57
2019-05-03T13:28:39.845Z,1.30
2019-05-03T13:30:45.278Z,2.07
2019-05-03T13:32:49.848Z,1.63
2019-05-03T13:34:55.336Z,1.40
2019-05-03T13:36:59.918Z,1.53
2019-05-03T13:39:13.989Z,1.57
2019-05-03T13:41:12.211Z,2.10
2019-05-03T13:43:16.601Z,1.70
2019-05-03T13:45:20.959Z,1.67
2019-05-03T13:47:25.553Z,1.80
2019-05-03T13:49:30.061Z,1.60
2019-05-03T13:51:35.781Z,2.10
2019-05-03T13:53:40.338Z,2.10
2019-05-03T13:55:47.114Z,2.00
2019-05-03T13:57:51.637Z,1.97
2019-05-03T13:59:56.109Z,1.63
2019-05-03T14:02:12.393Z,1.50
2019-05-03T14:04:07.465Z,1.33
2019-05-03T14:06:12.868Z,1.77
2019-05-03T14:08:17.651Z,1.37
2019-05-03T14:10:22.147Z,1.60
2019-05-03T14:12:26.625Z,2.40
2019-05-03T14:14:50.519Z,1.63
2019-05-03T14:16:55.162Z,3.00
2019-05-03T14:19:05.338Z,1.70
2019-05-03T14:21:16.465Z,1.93
2019-05-03T14:23:21.801Z,2.10
2019-05-03T14:25:26.240Z,2.20
2019-05-03T14:27:30.897Z,1.87
2019-05-03T14:29:35.486Z,1.63
2019-05-03T14:31:40.304Z,2.13
2019-05-03T14:33:44.937Z,2.70
2019-05-03T14:35:49.385Z,2.50
2019-05-03T14:37:55.083Z,2.07
2019-05-03T14:39:59.707Z,2.67
2019-05-03T14:42:04.788Z,2.17
2019-05-03T14:44:09.382Z,2.53
2019-05-03T14:46:16.295Z,2.53
2019-05-03T14:48:19.887Z,2.67
2019-05-03T14:50:25.485Z,2.50
2019-05-03T14:52:30.022Z,2.40
2019-05-03T14:54:36.049Z,2.73
2019-05-03T14:56:49.048Z,2.33
2019-05-03T14:59:11.157Z,2.40
2019-05-03T15:01:24.807Z,1.90
2019-05-03T15:03:29.327Z,2.43
2019-05-03T15:05:34.773Z,2.33
2019-05-03T15:07:39.579Z,2.13
2019-05-03T15:09:45.809Z,1.50
2019-05-03T15:11:50.359Z,2.17
2019-05-03T15:13:57.194Z,2.07
2019-05-03T15:16:02.034Z,2.60
2019-05-03T15:18:06.471Z,2.20
2019-05-03T15:20:11.165Z,2.40
2019-05-03T15:22:15.839Z,1.83
2019-05-03T15:24:21.380Z,2.13
2019-05-03T15:26:25.936Z,1.93
2019-05-03T15:28:30.434Z,2.30
2019-05-03T15:30:35.377Z,1.37
2019-05-03T15:32:39.841Z,1.77
2019-05-03T15:34:44.740Z,2.27
2019-05-03T15:36:49.125Z,2.33
2019-05-03T15:38:55.193Z,2.30
2019-05-03T15:41:00.426Z,2.10
2019-05-03T15:43:15.476Z,2.57
2019-05-03T15:45:51.007Z,1.57
2019-05-03T15:48:15.169Z,2.13
2019-05-03T15:52:24.718Z,1.60
2019-05-03T15:54:29.135Z,2.50
2019-05-03T15:56:33.563Z,2.23
2019-05-03T15:58:38.070Z,1.63
2019-05-03T16:00:44.519Z,2.20
2019-05-03T16:02:49.185Z,2.03
2019-05-03T16:04:55.682Z,2.73
2019-05-03T16:07:00.010Z,2.07
2019-05-03T16:09:07.704Z,2.20
2019-05-03T16:11:12.102Z,2.40
2019-05-03T16:13:16.614Z,2.00
2019-05-03T16:15:21.159Z,2.50
2019-05-03T16:17:25.519Z,2.50
2019-05-03T16:19:30.279Z,3.50
2019-05-03T16:21:36.743Z,2.63
2019-05-03T16:23:41.678Z,2.10
2019-05-03T16:25:47.013Z,2.73
2019-05-03T16:28:20.477Z,2.87
2019-05-03T16:30:46.654Z,3.00
2019-05-03T16:32:51.807Z,2.07
2019-05-03T16:34:56.238Z,3.60
2019-05-03T16:37:01.291Z,2.57
2019-05-03T16:39:07.328Z,2.90
2019-05-03T16:41:11.737Z,2.90
2019-05-03T16:43:16.328Z,3.10
2019-05-03T16:45:20.724Z,2.77
2019-05-03T16:47:25.113Z,3.70
2019-05-03T16:49:29.924Z,3.23
2019-05-03T16:51:34.952Z,3.80
2019-05-03T16:53:39.887Z,2.80
2019-05-03T16:55:44.766Z,3.33
2019-05-03T16:57:49.212Z,3.17
2019-05-03T16:59:55.106Z,2.57
2019-05-03T17:02:00.319Z,2.70
2019-05-03T17:04:34.651Z,3.07
2019-05-03T17:07:05.520Z,3.10
2019-05-03T17:09:35.312Z,2.57
2019-05-03T17:11:39.967Z,2.47
2019-05-03T17:13:46.196Z,2.80
2019-05-03T17:15:50.464Z,3.17
2019-05-03T17:17:54.868Z,2.47
2019-05-03T17:19:59.324Z,3.17
2019-05-03T17:22:08.583Z,3.10
2019-05-03T17:24:12.987Z,3.13
2019-05-03T17:26:19.197Z,2.70
2019-05-03T17:28:25.190Z,2.53
2019-05-03T17:30:33.814Z,2.83
2019-05-03T17:32:36.301Z,2.40
2019-05-03T17:34:40.809Z,2.87
2019-05-03T17:36:45.249Z,2.70
2019-05-03T17:38:51.950Z,3.63
2019-05-03T17:41:25.564Z,3.03
2019-05-03T17:43:49.096Z,2.60
2019-05-03T17:45:55.466Z,2.60
2019-05-03T17:48:00.084Z,2.27
2019-05-03T17:50:05.315Z,2.70
2019-05-03T17:52:28.807Z,3.03
2019-05-03T17:55:01.054Z,2.90
2019-05-03T17:57:18.996Z,2.43
2019-05-03T17:59:31.247Z,3.20
2019-05-03T18:02:04.864Z,2.70
2019-05-03T18:04:20.095Z,2.27
2019-05-03T18:06:30.534Z,2.13
2019-05-03T18:08:51.140Z,2.30
2019-05-03T18:11:04.443Z,2.87
2019-05-03T18:13:08.925Z,2.03
2019-05-03T18:15:14.785Z,1.70
2019-05-03T18:17:19.431Z,2.40
2019-05-03T18:19:24.949Z,3.00
2019-05-03T18:21:29.430Z,2.20
2019-05-03T18:23:35.177Z,2.00
2019-05-03T18:25:41.015Z,3.83
2019-05-03T18:27:46.904Z,3.10
2019-05-03T18:29:51.347Z,2.90
2019-05-03T18:31:56.221Z,2.93
2019-05-03T18:34:05.047Z,3.17
2019-05-03T18:36:09.621Z,3.10
2019-05-03T18:38:14.785Z,3.13
2019-05-03T18:40:19.695Z,2.93
2019-05-03T18:42:39.245Z,3.03
2019-05-03T18:44:47.989Z,2.80
2019-05-03T18:46:55.842Z,2.90
2019-05-03T18:49:00.851Z,2.10
2019-05-03T18:51:05.514Z,2.70
2019-05-03T18:53:09.951Z,3.43
2019-05-03T18:55:14.448Z,3.67
2019-05-03T18:57:18.968Z,3.17
2019-05-03T18:59:23.401Z,2.73
2019-05-03T19:01:27.799Z,3.47
2019-05-03T19:03:32.333Z,3.50
2019-05-03T19:05:38.417Z,3.40
2019-05-03T19:07:55.858Z,3.70
2019-05-03T19:10:11.030Z,3.33
2019-05-03T19:12:29.515Z,3.47
2019-05-03T19:14:34.296Z,2.67
2019-05-03T19:16:55.314Z,3.47
2019-05-03T19:19:01.875Z,3.53
2019-05-03T19:21:06.339Z,3.90
2019-05-03T19:23:11.013Z,3.57
2019-05-03T19:25:15.652Z,3.47
2019-05-03T19:27:20.207Z,4.00
2019-05-03T19:29:26.248Z,3.47
2019-05-03T19:31:32.963Z,4.07
2019-05-03T19:33:38.668Z,3.43
2019-05-03T19:35:44.881Z,3.50
2019-05-03T19:37:51.846Z,4.43
2019-05-03T19:39:57.142Z,3.60
2019-05-03T19:42:03.785Z,4.13
2019-05-03T19:44:09.259Z,4.17
2019-05-03T19:46:16.482Z,4.03
2019-05-03T19:48:20.815Z,4.37
2019-05-03T19:50:27.488Z,3.77
2019-05-03T19:52:37.025Z,3.10
2019-05-03T19:55:11.087Z,4.80
2019-05-03T19:57:18.343Z,4.00
2019-05-03T19:59:40.866Z,3.70
2019-05-03T20:01:55.204Z,3.87
2019-05-03T20:04:06.044Z,4.00
2019-05-03T20:06:19.484Z,4.20
2019-05-03T20:08:30.613Z,3.90
2019-05-03T20:10:35.452Z,4.67
2019-05-03T20:12:40.735Z,3.83
2019-05-03T20:14:46.447Z,3.27
2019-05-03T20:16:51.431Z,3.93
2019-05-03T20:18:57.186Z,4.47
2019-05-03T20:21:04.086Z,3.77
2019-05-03T20:23:08.768Z,3.67
2019-05-03T20:25:15.131Z,4.43
2019-05-03T20:27:20.327Z,4.30
2019-05-03T20:29:25.525Z,4.93
2019-05-03T20:31:32.763Z,4.23
2019-05-03T20:33:37.423Z,4.40
2019-05-03T20:35:42.354Z,4.23
2019-05-03T20:37:49.627Z,4.13
2019-05-03T20:39:57.229Z,3.63
2019-05-03T20:42:04.422Z,4.20
2019-05-03T20:44:27.419Z,4.37
2019-05-03T20:46:51.808Z,3.97
2019-05-03T20:48:59.797Z,3.97
2019-05-03T20:51:04.662Z,3.50
2019-05-03T20:53:12.521Z,3.63
2019-05-03T20:55:17.702Z,2.80
2019-05-03T20:57:24.667Z,3.17
2019-05-03T20:59:41.930Z,3.10
2019-05-03T21:01:35.556Z,3.50
2019-05-03T21:03:39.994Z,3.50
2019-05-03T21:05:44.549Z,3.60
2019-05-03T21:07:48.982Z,3.87
2019-05-03T21:09:54.740Z,4.23
2019-05-03T21:11:59.255Z,4.43
2019-05-03T21:14:04.780Z,3.00
2019-05-03T21:16:31.617Z,3.37
2019-05-03T21:19:01.189Z,3.10
2019-05-03T21:21:24.871Z,3.07
2019-05-03T21:23:31.999Z,3.70
2019-05-03T21:26:02.668Z,3.73
2019-05-03T21:27:48.198Z,4.10
2019-05-03T21:29:55.203Z,2.97
2019-05-03T21:32:00.992Z,2.40
2019-05-03T21:34:05.715Z,2.90
2019-05-03T21:36:11.829Z,3.10
2019-05-03T21:38:16.289Z,3.50
2019-05-03T21:40:20.892Z,2.50
2019-05-03T21:42:28.057Z,3.37
2019-05-03T21:44:34.410Z,3.30
2019-05-03T21:46:44.986Z,2.83
2019-05-03T21:49:25.212Z,3.00
2019-05-03T21:51:29.541Z,3.50
2019-05-03T21:53:34.488Z,3.83
2019-05-03T21:55:39.469Z,2.70
2019-05-03T21:57:44.978Z,3.10
2019-05-03T21:59:49.514Z,3.23
2019-05-03T22:01:54.668Z,3.60
2019-05-03T22:03:59.970Z,3.83
2019-05-03T22:06:04.370Z,3.60
2019-05-03T22:08:08.895Z,3.97
2019-05-03T22:10:15.125Z,3.60
2019-05-03T22:12:20.290Z,4.20
2019-05-03T22:14:46.209Z,4.93
2019-05-03T22:17:10.272Z,5.03
2019-05-03T22:19:17.946Z,4.80
2019-05-03T22:21:29.684Z,3.70
2019-05-03T22:23:58.501Z,4.30
2019-05-03T22:26:05.034Z,4.40
2019-05-03T22:28:09.028Z,4.37
2019-05-03T22:30:13.711Z,4.10
2019-05-03T22:32:18.111Z,4.50
2019-05-03T22:34:25.700Z,5.23
2019-05-03T22:36:30.747Z,4.03
2019-05-03T22:38:38.287Z,4.33
2019-05-03T22:40:44.236Z,3.93
2019-05-03T22:42:56.913Z,3.90
2019-05-03T22:45:01.818Z,4.50
2019-05-03T22:47:06.282Z,4.53
2019-05-03T22:49:10.699Z,4.97
2019-05-03T22:51:15.518Z,5.23
2019-05-03T22:53:20.926Z,4.93
2019-05-03T22:55:26.201Z,5.23
2019-05-03T22:57:35.005Z,5.27
2019-05-03T22:59:39.984Z,3.73
2019-05-03T23:01:45.790Z,5.10
2019-05-03T23:03:50.473Z,4.37
2019-05-03T23:05:54.940Z,5.00
2019-05-03T23:07:59.723Z,5.37
2019-05-03T23:10:04.578Z,5.50
2019-05-03T23:12:08.950Z,5.00
2019-05-03T23:14:15.071Z,5.30
2019-05-03T23:16:19.478Z,4.17
2019-05-03T23:18:25.646Z,5.13
2019-05-03T23:20:47.852Z,4.83
2019-05-03T23:22:52.200Z,5.47
2019-05-03T23:24:57.431Z,5.10
2019-05-03T23:27:01.830Z,3.77
2019-05-03T23:29:06.334Z,4.50
2019-05-03T23:31:37.767Z,3.20
2019-05-03T23:33:42.283Z,3.77
2019-05-03T23:35:49.797Z,4.07
2019-05-03T23:37:54.483Z,4.00
2019-05-03T23:39:58.893Z,3.07
2019-05-03T23:42:04.970Z,3.67
2019-05-03T23:44:09.886Z,3.07
2019-05-03T23:46:16.059Z,3.90
2019-05-03T23:48:20.852Z,2.40
2019-05-03T23:50:25.375Z,3.90
2019-05-03T23:52:37.105Z,3.33
2019-05-03T23:54:41.578Z,2.73
2019-05-03T23:56:46.105Z,3.40
2019-05-03T23:58:50.502Z,3.70
